Onweerkansen (GFS)

Untitled Document





Vliegweer

[Source: ADDS]
METAR
EBBR 221250Z 03010KT 9999 SCT040 15/06 Q1033 NOSIG =
EBBR 221120Z 2212/2318 02010KT 9999 FEW025 BKN035 BECMG 2222/2224 24006KT BECMG 2308/2310 SCT008 BKN012 PROB30 TEMPO 2314/2317 BKN008
TAF
EBBR 221120Z 2212/2318 02010KT 9999 FEW025 BKN035 BECMG 2222/2224 24006KT BECMG 2308/2310 SCT008 BKN012 PROB30 TEMPO 2314/2317 BKN008 =

StormCell is een non profit organisatie zonder oogmerk tot sensatie